Time;durP1;ratioP1;P1;durP2;ratioP2;P2;SDS_P1;SDS_P2;PMS_P1;PMS_P2;Temp;Humidity;BMP_temperature;BMP_pressure;BME280_temperature;BME280_humidity;BME280_pressure;Samples;Min_cycle;Max_cycle;Signal;HPM_P1;HPM_P2
2021/10/31 00:02:25;;;;;;;21.20;14.30;;;;;;;12.02;68.25;100891.09;5088545;28;20039;-20
2021/10/31 00:04:50;;;;;;;24.05;15.85;;;;;;;11.92;68.95;100890.69;5088659;28;20040;-22
2021/10/31 00:07:16;;;;;;;23.65;15.27;;;;;;;11.74;69.50;100901.97;5088764;28;20028;-20
2021/10/31 00:09:41;;;;;;;22.70;13.43;;;;;;;11.57;70.55;100898.06;5088227;28;20099;-22
2021/10/31 00:12:07;;;;;;;23.83;13.73;;;;;;;11.44;71.43;100893.53;5087781;28;20093;-20
2021/10/31 00:14:33;;;;;;;21.77;13.10;;;;;;;11.41;71.65;100885.94;5070088;28;20428;-20
2021/10/31 00:16:59;;;;;;;17.67;12.40;;;;;;;11.31;71.94;100888.19;5088538;28;20063;-29
2021/10/31 00:19:28;;;;;;;18.88;12.27;;;;;;;11.34;71.13;100882.41;5088569;28;20032;-20
2021/10/31 00:21:53;;;;;;;18.70;12.75;;;;;;;11.44;70.99;100888.19;5088232;28;20107;-20
2021/10/31 00:24:19;;;;;;;20.23;12.88;;;;;;;11.31;70.58;100866.81;5088661;28;20028;-20
2021/10/31 00:26:44;;;;;;;24.42;12.82;;;;;;;11.38;70.13;100887.19;5088767;28;20035;-21
2021/10/31 00:29:10;;;;;;;17.08;12.30;;;;;;;11.35;70.04;100884.09;5053292;28;20032;-20
2021/10/31 00:31:35;;;;;;;21.48;13.10;;;;;;;11.54;69.33;100885.94;5088361;28;20397;-20
2021/10/31 00:34:01;;;;;;;20.38;13.00;;;;;;;11.50;69.26;100890.03;5088161;28;20067;-20
2021/10/31 00:36:26;;;;;;;19.65;12.27;;;;;;;11.39;69.96;100875.44;5088135;28;20031;-20
2021/10/31 00:38:53;;;;;;;21.25;13.00;;;;;;;11.26;70.14;100876.25;5087906;28;20516;-19
2021/10/31 00:41:19;;;;;;;22.60;13.85;;;;;;;11.21;70.79;100873.38;5088283;28;20032;-19
2021/10/31 00:43:44;;;;;;;20.45;13.27;;;;;;;11.47;69.81;100877.09;5069957;28;20105;-20
2021/10/31 00:46:10;;;;;;;23.05;13.02;;;;;;;11.34;69.65;100866.41;5088220;28;20094;-20
2021/10/31 00:48:35;;;;;;;21.27;13.80;;;;;;;11.44;69.21;100870.34;5088318;28;20043;-21
2021/10/31 00:51:01;;;;;;;21.45;12.63;;;;;;;11.36;69.09;100880.38;5088227;28;20060;-20
2021/10/31 00:53:26;;;;;;;21.63;13.55;;;;;;;11.27;69.68;100879.75;5088175;28;20039;-20
2021/10/31 00:55:52;;;;;;;19.92;14.60;;;;;;;11.71;68.06;100877.50;5087849;28;20040;-20
2021/10/31 00:58:18;;;;;;;21.60;13.85;;;;;;;11.68;67.53;100857.38;5053017;28;20480;-20
2021/10/31 01:00:46;;;;;;;20.42;12.75;;;;;;;11.73;67.09;100859.41;5087913;28;20448;-20
2021/10/31 01:03:12;;;;;;;22.65;14.13;;;;;;;11.89;67.17;100875.09;5088082;28;20032;-20
2021/10/31 01:05:42;;;;;;;22.70;13.48;;;;;;;11.63;67.25;100852.66;5036693;28;20028;-20
2021/10/31 01:08:15;;;;;;;21.33;13.27;;;;;;;11.86;66.72;100870.09;5070342;28;20038;-20
2021/10/31 01:11:05;;;;;;;20.70;13.73;;;;;;;11.64;66.84;100867.63;5087674;28;20114;-20
2021/10/31 01:13:57;;;;;;;21.55;12.75;;;;;;;11.60;66.81;100870.94;5087924;28;20020;-20
2021/10/31 01:16:28;;;;;;;20.52;12.80;;;;;;;11.17;68.71;100861.44;5088068;28;20097;-20
2021/10/31 01:19:21;;;;;;;23.80;14.07;;;;;;;11.50;66.75;100868.66;5087730;28;20107;-20
2021/10/31 01:21:56;;;;;;;21.77;12.57;;;;;;;11.09;67.92;100853.63;5087407;28;20040;-21
2021/10/31 01:24:38;;;;;;;22.13;13.63;;;;;;;11.26;66.92;100865.59;5090041;28;20132;-20
2021/10/31 01:27:41;;;;;;;23.52;14.57;;;;;;;11.34;66.21;100866.41;5073741;28;20071;-20
2021/10/31 01:30:20;;;;;;;22.30;13.85;;;;;;;10.86;67.58;100864.69;5046126;28;20074;-21
2021/10/31 01:33:04;;;;;;;22.05;14.75;;;;;;;10.86;68.06;100860.16;5073312;28;20040;-20
2021/10/31 01:35:51;;;;;;;32.80;20.75;;;;;;;10.91;67.50;100858.72;5091557;28;20503;-20
2021/10/31 01:38:16;;;;;;;26.15;16.63;;;;;;;10.82;67.71;100853.56;5073310;28;20229;-20
2021/10/31 01:41:01;;;;;;;23.10;13.20;;;;;;;10.22;69.21;100857.84;5091165;28;20139;-19
2021/10/31 01:43:36;;;;;;;22.23;13.77;;;;;;;9.83;70.81;100848.59;5075485;28;20483;-20
2021/10/31 01:46:05;;;;;;;20.75;13.23;;;;;;;10.15;70.33;100856.97;5091174;28;20059;-20
2021/10/31 01:48:36;;;;;;;;;;;;;;;10.30;69.98;100852.38;5091801;28;20032;-20
2021/10/31 01:51:06;;;;;;;20.27;13.13;;;;;;;10.53;68.18;100843.22;5072754;28;19973;-20
2021/10/31 01:53:34;;;;;;;24.80;14.55;;;;;;;10.26;69.41;100843.09;5040110;28;20032;-20
2021/10/31 01:56:07;;;;;;;26.58;16.48;;;;;;;9.72;71.00;100841.13;5072912;28;20094;-20
2021/10/31 01:58:35;;;;;;;25.63;16.00;;;;;;;9.86;71.02;100846.31;5056232;28;20032;-20
2021/10/31 02:01:02;;;;;;;23.10;14.40;;;;;;;9.96;70.50;100853.97;5091325;28;20028;-20
2021/10/31 02:03:29;;;;;;;24.85;15.00;;;;;;;9.74;70.98;100828.41;5090752;28;20024;-20
2021/10/31 02:05:54;;;;;;;23.90;15.23;;;;;;;10.04;70.61;100839.69;5072915;28;20036;-20
2021/10/31 02:08:20;;;;;;;29.83;17.73;;;;;;;9.93;70.64;100841.06;5073013;28;20101;-20
2021/10/31 02:10:46;;;;;;;36.97;20.85;;;;;;;9.83;70.25;100832.59;5072523;28;20038;-20
2021/10/31 02:13:12;;;;;;;40.50;20.88;;;;;;;10.14;69.82;100850.00;5072585;28;20020;-21
2021/10/31 02:15:38;;;;;;;36.15;21.02;;;;;;;10.26;69.26;100843.09;5055995;28;20043;-21
2021/10/31 02:18:04;;;;;;;50.03;26.42;;;;;;;10.36;68.96;100843.56;5090292;28;20032;-20
2021/10/31 02:20:29;;;;;;;50.80;28.80;;;;;;;10.19;68.95;100839.56;5090442;28;20122;-20
2021/10/31 02:23:03;;;;;;;35.67;20.90;;;;;;;9.70;70.66;100840.47;5055762;28;20071;-20
2021/10/31 02:25:28;;;;;;;31.88;18.13;;;;;;;9.76;70.77;100847.69;5072840;28;20024;-20
2021/10/31 02:27:54;;;;;;;26.30;16.35;;;;;;;9.76;70.07;100837.03;5055258;28;20028;-20
2021/10/31 02:30:20;;;;;;;27.30;15.20;;;;;;;9.71;70.13;100828.81;5072156;28;20474;-20
2021/10/31 02:32:45;;;;;;;27.75;15.68;;;;;;;9.58;70.73;100835.69;5090502;28;20077;-20
2021/10/31 02:35:11;;;;;;;25.75;15.55;;;;;;;9.69;70.29;100831.69;5089420;28;20036;-20
2021/10/31 02:37:38;;;;;;;23.92;14.63;;;;;;;9.23;71.48;100830.31;5090116;28;20063;-20
2021/10/31 02:40:05;;;;;;;23.90;15.18;;;;;;;8.77;73.46;100828.00;5071748;28;20597;-20
2021/10/31 02:42:30;;;;;;;26.05;14.98;;;;;;;8.50;74.32;100818.06;5090492;28;20109;-20
2021/10/31 02:44:56;;;;;;;29.77;16.77;;;;;;;8.16;75.76;100824.78;5090100;28;20032;-20
2021/10/31 02:47:45;;;;;;;30.13;16.95;;;;;;;8.32;75.15;100827.22;5071923;28;20036;-20
2021/10/31 02:50:15;;;;;;;25.35;15.77;;;;;;;8.96;72.66;100831.03;5089978;28;20491;-20
2021/10/31 02:53:16;;;;;;;26.30;15.18;;;;;;;8.84;72.90;100828.88;5071908;28;20462;-20
2021/10/31 02:56:06;;;;;;;24.45;14.25;;;;;;;7.96;75.58;100837.78;5071921;28;20044;-21
2021/10/31 02:58:41;;;;;;;25.48;15.57;;;;;;;8.58;73.88;100837.41;5071425;28;20060;-20
2021/10/31 03:01:07;;;;;;;22.90;14.10;;;;;;;8.01;75.45;100836.22;5089897;28;20028;-20
2021/10/31 03:03:33;;;;;;;26.88;16.38;;;;;;;8.09;76.11;100813.22;5071580;28;20035;-20
2021/10/31 03:05:59;;;;;;;23.25;14.60;;;;;;;8.50;74.39;100826.03;5054622;28;20051;-20
2021/10/31 03:08:25;;;;;;;23.85;14.18;;;;;;;8.75;73.04;100819.38;5071441;28;20415;-20
2021/10/31 03:10:52;;;;;;;22.08;13.90;;;;;;;7.67;77.16;100835.94;5071307;28;20555;-20
2021/10/31 03:13:18;;;;;;;27.58;14.93;;;;;;;6.89;80.57;100841.34;5089513;28;20092;-20
2021/10/31 03:15:44;;;;;;;25.23;15.18;;;;;;;7.08;80.35;100825.97;5089111;28;20020;-20
2021/10/31 03:18:09;;;;;;;23.60;14.50;;;;;;;7.43;79.24;100843.91;5089680;28;20125;-19
2021/10/31 03:20:34;;;;;;;24.88;14.93;;;;;;;7.55;79.15;100844.31;5071160;28;20244;-20
2021/10/31 03:23:00;;;;;;;24.15;14.32;;;;;;;7.74;78.14;100842.16;5089768;28;20039;-20
2021/10/31 03:25:25;;;;;;;25.95;15.40;;;;;;;8.06;77.65;100838.31;5089224;28;20408;-20
2021/10/31 03:27:52;;;;;;;27.02;16.33;;;;;;;8.13;76.75;100830.44;5088917;28;20082;-21
2021/10/31 03:30:18;;;;;;;30.33;17.83;;;;;;;7.87;76.92;100815.81;5089265;28;20024;-21
2021/10/31 03:32:44;;;;;;;29.08;17.13;;;;;;;7.81;78.11;100833.28;5089475;28;20038;-20
2021/10/31 03:35:09;;;;;;;26.77;15.75;;;;;;;7.75;78.42;100825.22;5088955;28;20431;-20
2021/10/31 03:37:35;;;;;;;28.95;16.70;;;;;;;8.37;76.68;100838.13;5089066;28;20047;-20
2021/10/31 03:40:00;;;;;;;24.52;15.77;;;;;;;8.16;77.35;100830.09;5088980;28;20435;-20
2021/10/31 03:42:26;;;;;;;27.00;16.00;;;;;;;8.09;77.08;100807.91;5088920;28;20105;-21
2021/10/31 03:44:52;;;;;;;28.33;15.70;;;;;;;7.98;78.09;100825.97;5088892;28;20054;-20
2021/10/31 03:47:18;;;;;;;26.55;16.02;;;;;;;8.08;78.01;100823.03;5088580;28;20040;-20
2021/10/31 03:49:43;;;;;;;25.00;15.60;;;;;;;8.49;77.06;100824.41;5088734;28;20028;-20
2021/10/31 03:52:08;;;;;;;27.17;16.60;;;;;;;8.32;77.68;100819.25;5089005;28;20040;-20
2021/10/31 03:54:34;;;;;;;27.90;15.55;;;;;;;8.34;78.16;100822.56;5088842;28;20032;-20
2021/10/31 03:56:59;;;;;;;27.52;15.38;;;;;;;8.31;78.42;100820.25;5088686;28;20032;-20
2021/10/31 03:59:25;;;;;;;23.73;13.98;;;;;;;8.27;78.43;100813.66;5088678;28;20571;-20
2021/10/31 04:01:50;;;;;;;26.27;15.77;;;;;;;8.30;78.77;100823.13;5088497;28;20093;-23
2021/10/31 04:04:16;;;;;;;25.17;15.13;;;;;;;8.27;79.09;100829.59;5070363;28;20043;-22
2021/10/31 04:06:41;;;;;;;24.98;14.52;;;;;;;8.30;79.46;100810.66;5088677;28;20028;-23
2021/10/31 04:09:07;;;;;;;28.40;15.70;;;;;;;8.26;79.68;100827.97;5088779;28;20020;-20
2021/10/31 04:11:32;;;;;;;24.35;14.65;;;;;;;8.20;79.70;100815.44;5070636;28;20047;-20
2021/10/31 04:13:57;;;;;;;25.42;15.02;;;;;;;8.37;78.87;100835.47;5088213;28;20031;-19
2021/10/31 04:16:23;;;;;;;29.42;15.77;;;;;;;8.75;77.38;100835.34;5089008;28;20028;-20
2021/10/31 04:18:48;;;;;;;25.73;16.48;;;;;;;8.88;76.21;100818.69;5088411;28;20032;-20
2021/10/31 04:21:14;;;;;;;25.88;14.77;;;;;;;8.63;77.59;100831.50;5088082;28;20103;-20
2021/10/31 04:23:40;;;;;;;23.88;14.60;;;;;;;8.45;78.98;100832.72;5088188;28;20028;-20
2021/10/31 04:26:05;;;;;;;21.45;13.25;;;;;;;8.25;79.76;100829.81;5069912;28;20093;-20
2021/10/31 04:28:31;;;;;;;24.55;14.57;;;;;;;8.52;79.09;100834.63;5088264;28;20032;-20
2021/10/31 04:30:56;;;;;;;21.65;14.38;;;;;;;9.07;76.45;100829.72;5088200;28;20090;-20
2021/10/31 04:33:22;;;;;;;21.83;13.43;;;;;;;9.42;74.71;100822.66;5070268;28;20039;-20
2021/10/31 04:35:47;;;;;;;21.00;12.57;;;;;;;9.34;74.13;100817.50;5087933;28;20035;-20
2021/10/31 04:38:20;;;;;;;21.52;12.48;;;;;;;9.37;73.00;100817.09;5088022;28;20052;-20
2021/10/31 04:40:46;;;;;;;20.58;12.73;;;;;;;8.81;75.16;100807.97;5088143;28;20058;-20
2021/10/31 04:43:12;;;;;;;20.58;12.68;;;;;;;8.52;76.65;100802.75;5088328;28;20032;-20
2021/10/31 04:45:39;;;;;;;19.45;11.88;;;;;;;8.75;77.13;100818.56;5087679;28;20036;-20
2021/10/31 04:48:05;;;;;;;18.25;12.32;;;;;;;9.28;74.71;100821.72;5069842;28;20027;-20
2021/10/31 04:50:30;;;;;;;21.23;12.57;;;;;;;9.14;75.61;100812.81;5069906;28;20025;-20
2021/10/31 04:52:56;;;;;;;20.80;12.38;;;;;;;8.64;77.40;100795.91;5053281;28;20475;-21
2021/10/31 04:55:21;;;;;;;21.98;13.68;;;;;;;8.92;77.78;100819.13;5088215;28;20028;-21
2021/10/31 04:57:47;;;;;;;25.92;15.93;;;;;;;9.05;76.00;100811.28;5087904;28;20503;-20
2021/10/31 05:00:13;;;;;;;30.30;17.15;;;;;;;8.75;77.17;100808.75;5091974;28;20828;-20
2021/10/31 05:02:38;;;;;;;29.58;19.30;;;;;;;8.79;77.34;100803.88;5090848;28;20519;-20
2021/10/31 05:05:04;;;;;;;25.80;18.58;;;;;;;9.04;76.71;100793.66;5092120;28;20024;-20
2021/10/31 05:07:30;;;;;;;26.30;18.33;;;;;;;9.13;75.76;100795.16;5091735;28;20404;-21
2021/10/31 05:09:55;;;;;;;25.42;16.63;;;;;;;9.43;75.03;100813.66;5073745;28;20028;-21
2021/10/31 05:12:22;;;;;;;30.05;15.18;;;;;;;9.52;74.58;100811.66;5091780;28;20032;-20
2021/10/31 05:14:47;;;;;;;26.20;14.15;;;;;;;9.43;74.22;100808.34;5091979;28;20075;-20
2021/10/31 05:17:13;;;;;;;23.13;13.57;;;;;;;9.24;75.59;100809.81;5073412;28;20125;-20
2021/10/31 05:19:38;;;;;;;21.30;13.15;;;;;;;9.15;76.13;100802.97;5073509;28;20020;-20
2021/10/31 05:22:04;;;;;;;65.80;36.47;;;;;;;9.04;76.95;100809.63;5091478;28;20028;-20
2021/10/31 05:24:29;;;;;;;54.90;33.67;;;;;;;8.89;77.48;100801.72;5091747;28;20388;-20
2021/10/31 05:26:55;;;;;;;41.05;25.73;;;;;;;9.11;76.88;100802.53;5091549;28;20043;-19
2021/10/31 05:29:20;;;;;;;33.72;21.50;;;;;;;9.03;77.04;100790.19;5091187;28;20416;-20
2021/10/31 05:31:46;;;;;;;34.08;23.20;;;;;;;9.38;75.76;100802.78;5091119;28;20048;-20
2021/10/31 05:34:11;;;;;;;31.20;21.33;;;;;;;9.05;77.15;100808.59;5091803;28;20028;-21
2021/10/31 05:36:37;;;;;;;30.63;17.75;;;;;;;9.17;77.42;100801.75;5091486;28;20028;-20
2021/10/31 05:39:02;;;;;;;31.05;18.77;;;;;;;9.67;75.69;100807.06;5073160;28;20060;-20
2021/10/31 05:41:28;;;;;;;29.42;17.02;;;;;;;9.68;75.12;100798.06;5091294;28;20028;-20
2021/10/31 05:43:53;;;;;;;26.73;17.10;;;;;;;9.18;77.68;100798.09;5091077;28;20047;-21
2021/10/31 05:46:19;;;;;;;22.15;14.15;;;;;;;9.46;77.07;100799.97;5091091;28;20450;-21
2021/10/31 05:48:44;;;;;;;21.88;13.98;;;;;;;9.37;76.76;100795.78;5056427;28;20484;-20
2021/10/31 05:51:10;;;;;;;26.25;14.35;;;;;;;9.57;75.96;100807.41;5056268;28;20050;-20
2021/10/31 05:53:35;;;;;;;23.25;14.77;;;;;;;9.86;74.92;100792.22;5091430;28;20047;-20
2021/10/31 05:56:01;;;;;;;23.15;14.18;;;;;;;10.02;74.52;100804.41;5072980;28;20055;-21
2021/10/31 05:58:26;;;;;;;21.65;13.43;;;;;;;9.95;74.61;100809.72;5091184;28;20042;-20
2021/10/31 06:00:52;;;;;;;20.38;13.07;;;;;;;9.54;75.07;100797.16;5073075;28;20054;-20
2021/10/31 06:03:18;;;;;;;19.98;12.82;;;;;;;9.58;76.52;100819.72;5073162;28;20032;-20
2021/10/31 06:05:46;;;;;;;21.60;11.95;;;;;;;9.80;74.68;100814.31;5090756;28;20034;-20
2021/10/31 06:08:16;;;;;;;18.20;11.88;;;;;;;9.99;73.24;100815.44;5090897;28;20494;-19
2021/10/31 06:10:42;;;;;;;20.13;12.93;;;;;;;9.64;74.17;100797.66;5089314;28;20036;-20
2021/10/31 06:13:07;;;;;;;20.02;11.85;;;;;;;9.90;73.38;100806.81;5072741;28;20039;-20
2021/10/31 06:15:33;;;;;;;18.42;11.60;;;;;;;10.50;71.38;100811.63;5072394;28;20028;-20
2021/10/31 06:17:58;;;;;;;20.60;11.95;;;;;;;10.39;71.69;100818.34;5072395;28;20127;-20
2021/10/31 06:20:24;;;;;;;21.73;12.70;;;;;;;10.38;72.01;100814.03;5090657;28;20085;-22
2021/10/31 06:22:49;;;;;;;19.63;12.20;;;;;;;10.32;72.69;100814.81;5091220;28;20032;-21
2021/10/31 06:25:15;;;;;;;18.75;11.25;;;;;;;10.34;71.48;100804.78;5090700;28;20031;-21
2021/10/31 06:27:40;;;;;;;18.95;11.90;;;;;;;10.09;73.39;100817.78;5090603;28;20024;-20
2021/10/31 06:30:06;;;;;;;20.10;12.57;;;;;;;10.21;72.25;100822.34;5090430;28;20465;-20
2021/10/31 06:32:32;;;;;;;21.52;13.10;;;;;;;10.32;72.23;100809.50;5090197;28;20115;-20
2021/10/31 06:34:57;;;;;;;18.30;12.05;;;;;;;10.12;72.62;100807.53;5090432;28;20028;-20
2021/10/31 06:37:23;;;;;;;23.15;14.30;;;;;;;10.38;71.87;100809.53;5072014;28;20484;-20
2021/10/31 06:39:48;;;;;;;22.05;12.63;;;;;;;10.42;72.35;100816.13;5089936;28;20035;-20
2021/10/31 06:42:14;;;;;;;19.85;12.65;;;;;;;10.39;71.60;100795.16;5072416;28;20036;-20
2021/10/31 06:44:39;;;;;;;24.85;14.88;;;;;;;10.53;71.18;100819.22;5071643;28;20388;-20
2021/10/31 06:47:05;;;;;;;20.40;13.20;;;;;;;10.24;72.91;100823.81;5071897;28;20047;-21
2021/10/31 06:49:30;;;;;;;20.40;12.45;;;;;;;10.12;72.92;100806.72;5055399;28;20032;-20
2021/10/31 06:51:56;;;;;;;20.33;11.88;;;;;;;9.89;73.90;100825.63;5071595;28;20122;-20
2021/10/31 06:54:22;;;;;;;48.92;26.75;;;;;;;9.95;74.83;100808.88;5089781;28;20036;-20
2021/10/31 06:56:47;;;;;;;54.45;29.15;;;;;;;10.45;73.37;100817.56;5072048;28;20484;-22
2021/10/31 06:59:13;;;;;;;36.83;22.52;;;;;;;10.83;71.82;100812.53;5071799;28;20031;-20
2021/10/31 07:01:38;;;;;;;20.90;12.40;;;;;;;10.62;72.06;100800.19;5071418;28;20024;-20
2021/10/31 07:04:07;;;;;;;18.50;11.75;;;;;;;10.22;74.34;100824.00;5089350;28;20499;-20
2021/10/31 07:06:32;;;;;;;;;;;;;;;10.16;74.27;100811.47;5090192;28;20038;-20
2021/10/31 07:08:58;;;;;;;22.45;12.75;;;;;;;10.23;74.64;100814.97;5089725;28;19908;-20
2021/10/31 07:11:23;;;;;;;20.88;12.70;;;;;;;10.55;73.92;100814.53;5071200;28;20032;-20
2021/10/31 07:13:49;;;;;;;23.55;13.52;;;;;;;10.42;73.87;100810.78;5089209;28;20024;-20
2021/10/31 07:16:14;;;;;;;20.38;11.45;;;;;;;10.31;74.44;100814.00;5089570;28;20043;-20
2021/10/31 07:18:40;;;;;;;18.98;11.68;;;;;;;9.96;74.90;100784.69;5089547;28;20035;-20
2021/10/31 07:21:05;;;;;;;19.42;12.27;;;;;;;10.11;75.54;100808.53;5089011;28;20028;-20
2021/10/31 07:23:31;;;;;;;20.65;12.25;;;;;;;10.04;74.90;100811.19;5088944;28;20031;-20
2021/10/31 07:25:57;;;;;;;19.75;11.40;;;;;;;10.22;75.50;100802.66;5071023;28;20040;-20
2021/10/31 07:28:22;;;;;;;17.27;10.65;;;;;;;10.02;75.44;100812.41;5088982;28;20028;-20
2021/10/31 07:30:50;;;;;;;18.13;10.95;;;;;;;10.16;75.34;100794.66;5089161;28;20463;-20
2021/10/31 07:33:15;;;;;;;19.48;12.68;;;;;;;10.31;75.09;100803.34;5089510;28;20023;-19
2021/10/31 07:35:41;;;;;;;23.00;13.65;;;;;;;10.38;74.12;100795.38;5054071;28;20039;-20
2021/10/31 07:38:07;;;;;;;18.38;13.27;;;;;;;10.62;73.64;100791.34;5088894;28;20052;-20
2021/10/31 07:40:32;;;;;;;21.30;13.70;;;;;;;10.85;72.67;100805.16;5088948;28;20028;-21
2021/10/31 07:42:59;;;;;;;25.30;13.73;;;;;;;11.17;72.01;100786.69;5089062;28;20028;-20
2021/10/31 07:45:25;;;;;;;22.75;12.95;;;;;;;11.35;71.43;100782.59;5089265;28;20040;-20
2021/10/31 07:47:50;;;;;;;21.85;12.25;;;;;;;11.74;70.12;100802.28;5088864;28;20032;-20
2021/10/31 07:50:16;;;;;;;20.52;13.63;;;;;;;11.52;72.00;100804.38;5070462;28;20036;-21
2021/10/31 07:52:43;;;;;;;21.77;13.43;;;;;;;11.23;74.97;100811.75;5070573;28;20043;-20
2021/10/31 07:55:15;;;;;;;23.60;14.70;;;;;;;11.21;74.00;100814.63;5088951;28;20059;-20
2021/10/31 07:57:42;;;;;;;24.52;15.35;;;;;;;11.40;72.63;100821.03;5071510;28;20523;-22
2021/10/31 08:00:08;;;;;;;20.55;12.73;;;;;;;11.26;72.94;100808.69;5088954;28;20476;-22
2021/10/31 08:02:34;;;;;;;21.52;13.73;;;;;;;11.27;72.29;100781.78;5070763;28;20028;-20
2021/10/31 08:04:59;;;;;;;19.17;12.13;;;;;;;11.62;72.40;100804.75;5070397;28;20027;-19
2021/10/31 08:07:29;;;;;;;23.55;13.65;;;;;;;11.71;70.91;100808.88;5088550;28;20028;-20
2021/10/31 08:09:57;;;;;;;21.58;12.60;;;;;;;11.94;69.63;100795.06;5088406;28;20039;-20
2021/10/31 08:12:22;;;;;;;18.50;12.50;;;;;;;11.78;70.60;100804.31;5088818;28;20361;-23
2021/10/31 08:14:47;;;;;;;24.45;14.70;;;;;;;12.15;69.15;100803.84;5088710;28;20499;-19
2021/10/31 08:17:13;;;;;;;24.58;15.00;;;;;;;12.45;67.44;100804.16;5070351;28;20036;-19
2021/10/31 08:19:38;;;;;;;24.42;15.90;;;;;;;12.54;67.04;100796.69;5088334;28;20028;-20
2021/10/31 08:22:04;;;;;;;22.25;15.27;;;;;;;12.28;67.68;100806.50;5088087;28;20032;-20
2021/10/31 08:24:29;;;;;;;24.25;16.25;;;;;;;11.65;68.85;100791.00;5070307;28;20085;-20
2021/10/31 08:26:55;;;;;;;25.80;16.70;;;;;;;11.89;69.03;100810.09;5088394;28;20035;-20
2021/10/31 08:29:23;;;;;;;27.98;18.90;;;;;;;12.13;68.93;100800.56;5088586;28;20085;-20
2021/10/31 08:31:52;;;;;;;27.83;17.98;;;;;;;12.23;68.58;100807.09;5087918;28;20020;-20
2021/10/31 08:34:17;;;;;;;27.52;18.00;;;;;;;12.37;68.26;100783.00;5087248;28;20044;-20
2021/10/31 08:36:43;;;;;;;26.02;16.50;;;;;;;12.46;68.72;100805.78;5070126;28;20038;-19
2021/10/31 08:39:08;;;;;;;23.23;15.50;;;;;;;12.38;68.45;100798.00;5088125;28;20048;-20
2021/10/31 08:41:34;;;;;;;24.38;15.48;;;;;;;12.06;68.84;100806.75;5088098;28;20024;-20
2021/10/31 08:44:00;;;;;;;25.45;15.25;;;;;;;12.49;67.29;100786.63;5070077;28;20043;-20
2021/10/31 08:46:29;;;;;;;25.45;16.15;;;;;;;12.81;66.01;100797.34;5088029;28;20028;-20
2021/10/31 08:48:54;;;;;;;30.10;17.58;;;;;;;13.13;65.09;100795.50;5069996;28;20024;-20
2021/10/31 08:51:24;;;;;;;23.17;14.40;;;;;;;12.95;65.39;100792.75;5069746;28;20065;-20
2021/10/31 08:53:50;;;;;;;16.10;11.23;;;;;;;12.92;63.59;100790.50;5087718;28;20044;-20
2021/10/31 08:56:16;;;;;;;19.38;12.57;;;;;;;13.18;64.07;100787.63;5088021;28;20071;-20
2021/10/31 08:58:42;;;;;;;18.02;12.68;;;;;;;13.24;63.39;100780.59;5087999;28;20145;-20
2021/10/31 09:01:07;;;;;;;18.75;11.63;;;;;;;13.18;62.52;100782.28;5053301;28;20085;-20
2021/10/31 09:03:33;;;;;;;19.13;12.80;;;;;;;13.32;62.14;100782.19;5087787;28;20063;-19
2021/10/31 09:05:58;;;;;;;21.30;12.93;;;;;;;13.20;62.66;100779.38;5069823;28;20032;-20
2021/10/31 09:08:24;;;;;;;18.45;12.52;;;;;;;13.36;63.25;100776.19;5088128;28;20024;-22
2021/10/31 09:10:52;;;;;;;18.77;12.25;;;;;;;13.51;62.89;100770.47;5088281;28;20765;-19
2021/10/31 09:13:17;;;;;;;;;;;;;;;13.80;61.14;100773.50;5088527;28;20032;-21
2021/10/31 09:15:43;;;;;;;20.20;11.52;;;;;;;13.86;61.01;100772.59;5087875;28;19914;-20
2021/10/31 09:18:08;;;;;;;16.35;10.38;;;;;;;13.56;60.20;100770.63;5088267;28;20032;-20
2021/10/31 09:20:34;;;;;;;17.65;11.48;;;;;;;13.94;60.44;100742.81;5087921;28;20764;-20
2021/10/31 09:23:01;;;;;;;15.27;9.98;;;;;;;14.19;59.05;100766.03;5087792;28;20058;-20
2021/10/31 09:25:27;;;;;;;15.93;10.10;;;;;;;14.29;58.35;100749.41;5087909;28;20111;-20
2021/10/31 09:27:56;;;;;;;15.88;10.07;;;;;;;14.05;58.62;100760.81;5087665;28;20081;-20
2021/10/31 09:30:26;;;;;;;15.18;11.00;;;;;;;14.40;58.95;100729.81;5087789;28;20054;-19
2021/10/31 09:32:52;;;;;;;16.77;9.85;;;;;;;14.40;57.29;100741.38;5087882;28;20063;-21
2021/10/31 09:35:19;;;;;;;12.00;8.00;;;;;;;14.44;55.52;100741.75;5087556;28;20024;-20
2021/10/31 09:37:46;;;;;;;15.03;9.57;;;;;;;14.20;56.23;100738.13;5052888;28;20055;-20
2021/10/31 09:40:12;;;;;;;16.70;10.05;;;;;;;14.24;58.00;100736.63;5087863;28;20365;-19
2021/10/31 09:42:38;;;;;;;14.73;10.30;;;;;;;14.63;57.03;100729.94;5069560;28;20411;-20
2021/10/31 09:45:04;;;;;;;16.08;9.88;;;;;;;14.49;57.08;100722.28;5037342;28;20507;-20
2021/10/31 09:47:30;;;;;;;14.77;9.90;;;;;;;14.46;56.92;100726.22;5091225;28;20028;-22
2021/10/31 09:49:55;;;;;;;17.10;10.57;;;;;;;14.62;57.22;100722.13;5090850;28;20031;-21
2021/10/31 09:52:23;;;;;;;17.75;10.50;;;;;;;14.44;57.92;100702.34;5091289;28;20032;-22
2021/10/31 09:54:49;;;;;;;23.15;12.35;;;;;;;14.51;57.87;100712.16;5091144;28;20077;-21
2021/10/31 09:57:14;;;;;;;16.05;10.95;;;;;;;14.80;57.62;100716.66;5091118;28;20454;-22
2021/10/31 09:59:43;;;;;;;15.07;9.73;;;;;;;14.56;55.99;100706.94;5091082;28;20032;-22
2021/10/31 10:02:13;;;;;;;16.52;10.65;;;;;;;14.77;56.63;100708.25;5091010;28;20535;-22
2021/10/31 10:04:41;;;;;;;15.95;9.27;;;;;;;14.77;55.58;100698.34;5073284;28;20571;-22
2021/10/31 10:07:07;;;;;;;16.03;10.20;;;;;;;14.74;56.17;100698.00;5090713;28;20161;-22
2021/10/31 10:09:33;;;;;;;17.83;10.57;;;;;;;14.66;56.49;100683.84;5090601;28;20760;-22
2021/10/31 10:12:00;;;;;;;13.50;8.98;;;;;;;15.05;54.11;100694.16;5090396;28;20541;-22
2021/10/31 10:14:30;;;;;;;12.57;8.32;;;;;;;14.84;54.05;100680.25;5072637;28;20036;-21
2021/10/31 10:17:05;;;;;;;15.45;9.27;;;;;;;14.98;54.23;100671.97;5073251;28;20115;-22
2021/10/31 10:19:35;;;;;;;13.65;9.15;;;;;;;14.74;56.23;100665.78;5073530;28;20024;-22
2021/10/31 10:22:06;;;;;;;17.48;10.45;;;;;;;14.40;57.45;100668.09;5090537;28;20035;-20
2021/10/31 10:24:40;;;;;;;15.75;10.32;;;;;;;14.75;57.48;100678.97;5090413;28;20049;-20
2021/10/31 10:27:09;;;;;;;14.15;9.45;;;;;;;14.71;57.28;100661.69;5090642;28;20431;-20
2021/10/31 10:29:39;;;;;;;16.38;10.15;;;;;;;15.01;55.62;100671.50;5072024;28;20036;-20
2021/10/31 10:32:26;;;;;;;15.88;10.05;;;;;;;14.66;56.19;100662.38;5072042;28;20529;-19
2021/10/31 10:34:54;;;;;;;15.35;8.57;;;;;;;14.73;55.50;100662.28;5089700;28;20484;-19
2021/10/31 10:37:23;;;;;;;;;;;;;;;14.81;54.99;100656.56;5072263;28;20085;-21
2021/10/31 10:40:00;;;;;;;11.15;7.68;;;;;;;14.62;55.35;100657.69;5090155;28;19918;-20
2021/10/31 10:42:31;;;;;;;14.48;9.23;;;;;;;15.02;55.02;100643.59;5089977;28;20036;-21
2021/10/31 10:45:07;;;;;;;13.43;8.82;;;;;;;15.25;54.11;100657.00;5090199;28;20543;-20
2021/10/31 10:47:35;;;;;;;14.68;9.93;;;;;;;15.36;53.58;100641.91;5071776;28;20055;-21
2021/10/31 10:50:01;;;;;;;14.80;8.85;;;;;;;15.38;54.06;100649.75;5055314;28;20039;-20
2021/10/31 10:52:31;;;;;;;17.55;11.05;;;;;;;15.17;54.67;100643.13;5089826;28;20043;-20
2021/10/31 10:55:02;;;;;;;18.73;10.40;;;;;;;14.91;55.56;100644.41;5090041;28;20040;-20
2021/10/31 10:57:30;;;;;;;14.95;8.75;;;;;;;14.57;56.82;100642.28;5089059;28;20081;-20
2021/10/31 11:00:04;;;;;;;14.85;8.68;;;;;;;14.43;56.00;100633.59;5071523;28;20032;-20
2021/10/31 11:02:29;;;;;;;16.38;11.15;;;;;;;14.82;55.80;100625.16;5089790;28;20480;-21
2021/10/31 11:04:57;;;;;;;13.13;8.75;;;;;;;15.05;54.21;100635.06;5072114;28;20067;-20
2021/10/31 11:07:31;;;;;;;15.43;9.52;;;;;;;15.24;54.02;100628.53;5071703;28;20447;-21
2021/10/31 11:09:58;;;;;;;27.95;16.23;;;;;;;15.39;53.55;100608.41;5089565;28;20032;-21
2021/10/31 11:12:23;;;;;;;15.60;10.18;;;;;;;15.26;56.32;100626.41;5038437;28;20114;-20
2021/10/31 11:14:49;;;;;;;19.23;13.75;;;;;;;15.03;57.18;100615.69;5070919;28;20555;-20
2021/10/31 11:17:17;;;;;;;16.58;9.63;;;;;;;14.79;56.37;100626.44;5089476;28;20032;-20